MSC Opera — H3FV — position and weather

sailwx.info

Track history (hours):
 
Tides and Currents Weather Stations Pressure Air Temp Water Temp Dewpoint Dewpoint Depression Visibility Wind Speed Wind Dir Waves Ship Positions

MSC Opera

Operator: Mediterranean Shipping Company

Last reported at 2020-Jan-24 15:58 UTC. Time now 2020-Jan-25 05:06 UTC.
Position N 38°45' E 015°11'.

Length 275 m; draft 6.8 m.

Type: Passenger vessel. MMSI: 357627000.

Date/timePositionNaut miles runAvg speedWind from/ knotsBaromVisibWave heightAir tempDewpointWater temp
2020-Jan-24 15:58N 38°45' E 015°11'1818.8
2020-Jan-24 15:00N 38°32' E 015°27'1818.1
2020-Jan-24 13:59N 38°18' E 015°43'10 4.1
2020-Jan-24 11:35N 38°12' E 015°33'0 0.0
2020-Jan-24 10:56N 38°12' E 015°33'0 0.0
2020-Jan-24 10:20N 38°12' E 015°33'0 0.0
2020-Jan-24 09:56N 38°12' E 015°33'0 0.0
2020-Jan-24 07:30N 38°12' E 015°33'0 0.0
2020-Jan-24 07:00N 38°12' E 015°33'22 6.3
2020-Jan-24 03:27N 37°50' E 015°41'1415.2
2020-Jan-24 02:30N 37°46' E 015°58'  
2020-Jan-21 13:00N 34°34' E 033°05'6 3.8
2020-Jan-21 11:28N 34°39' E 033°01'0 0.0
2020-Jan-21 10:28N 34°39' E 033°01'0 0.0
2020-Jan-21 07:30N 34°39' E 033°01'0 0.0
2020-Jan-21 06:59N 34°39' E 033°01'15 5.0
2020-Jan-21 04:01N 34°29' E 033°15'816.6
2020-Jan-21 03:31N 34°23' E 033°21'11217.2
2020-Jan-20 21:01N 32°60' E 034°51'13 5.2
2020-Jan-20 18:29N 32°49' E 035°00'0 0.0
2020-Jan-20 16:58N 32°49' E 035°00'0 0.0
2020-Jan-20 14:58N 32°49' E 035°00'0 0.0
2020-Jan-20 13:30N 32°49' E 035°00'5 0.5
2020-Jan-20 03:30N 32°53' E 034°56'1414.4
2020-Jan-20 02:30N 32°58' E 034°40'  
2020-Jan-16 17:30N 38°21' E 015°38'1019.8
2020-Jan-16 17:00N 38°29' E 015°30'39318.7
2020-Jan-15 20:00N 43°13' E 009°30'918.5
2020-Jan-15 19:30N 43°22' E 009°26'2818.5
2020-Jan-15 18:00N 43°48' E 009°14'39 9.8
2020-Jan-15 14:00N 44°25' E 008°55'0 0.0
2020-Jan-15 12:27N 44°25' E 008°55'0 0.0
2020-Jan-15 11:29N 44°25' E 008°55'0 0.0
2020-Jan-15 09:29N 44°25' E 008°55'0 0.0
2020-Jan-15 08:28N 44°25' E 008°55'12 3.4
2020-Jan-15 05:01N 44°14' E 009°02'2013.1
2020-Jan-15 03:30N 43°55' E 009°10'1312.8
2020-Jan-15 02:30N 43°43' E 009°16'1716.8
2020-Jan-15 01:31N 43°27' E 009°23'  
Track history (hours):
 
Tides and Currents Weather Stations Pressure Air Temp Water Temp Dewpoint Dewpoint Depression Visibility Wind Speed Wind Dir Waves Ship Positions

MSC Opera

Operator: Mediterranean Shipping Company

Last reported at 2020-Jan-24 15:58 UTC. Time now 2020-Jan-25 05:06 UTC.
Position N 38°45' E 015°11'.

Length 275 m; draft 6.8 m.

Type: Passenger vessel. MMSI: 357627000.

Date/timePositionNaut miles runAvg speedWind from/ knotsBaromVisibWave heightAir tempDewpointWater temp
2020-Jan-24 15:58N 38°45' E 015°11'1818.8
2020-Jan-24 15:00N 38°32' E 015°27'1818.1
2020-Jan-24 13:59N 38°18' E 015°43'10 4.1
2020-Jan-24 11:35N 38°12' E 015°33'0 0.0
2020-Jan-24 10:56N 38°12' E 015°33'0 0.0
2020-Jan-24 10:20N 38°12' E 015°33'0 0.0
2020-Jan-24 09:56N 38°12' E 015°33'0 0.0
2020-Jan-24 07:30N 38°12' E 015°33'0 0.0
2020-Jan-24 07:00N 38°12' E 015°33'22 6.3
2020-Jan-24 03:27N 37°50' E 015°41'1415.2
2020-Jan-24 02:30N 37°46' E 015°58'  
2020-Jan-21 13:00N 34°34' E 033°05'6 3.8
2020-Jan-21 11:28N 34°39' E 033°01'0 0.0
2020-Jan-21 10:28N 34°39' E 033°01'0 0.0
2020-Jan-21 07:30N 34°39' E 033°01'0 0.0
2020-Jan-21 06:59N 34°39' E 033°01'15 5.0
2020-Jan-21 04:01N 34°29' E 033°15'816.6
2020-Jan-21 03:31N 34°23' E 033°21'11217.2
2020-Jan-20 21:01N 32°60' E 034°51'13 5.2
2020-Jan-20 18:29N 32°49' E 035°00'0 0.0
2020-Jan-20 16:58N 32°49' E 035°00'0 0.0
2020-Jan-20 14:58N 32°49' E 035°00'0 0.0
2020-Jan-20 13:30N 32°49' E 035°00'5 0.5
2020-Jan-20 03:30N 32°53' E 034°56'1414.4
2020-Jan-20 02:30N 32°58' E 034°40'  
2020-Jan-16 17:30N 38°21' E 015°38'1019.8
2020-Jan-16 17:00N 38°29' E 015°30'39318.7
2020-Jan-15 20:00N 43°13' E 009°30'918.5
2020-Jan-15 19:30N 43°22' E 009°26'2818.5
2020-Jan-15 18:00N 43°48' E 009°14'39 9.8
2020-Jan-15 14:00N 44°25' E 008°55'0 0.0
2020-Jan-15 12:27N 44°25' E 008°55'0 0.0
2020-Jan-15 11:29N 44°25' E 008°55'0 0.0
2020-Jan-15 09:29N 44°25' E 008°55'0 0.0
2020-Jan-15 08:28N 44°25' E 008°55'12 3.4
2020-Jan-15 05:01N 44°14' E 009°02'2013.1
2020-Jan-15 03:30N 43°55' E 009°10'1312.8
2020-Jan-15 02:30N 43°43' E 009°16'1716.8
2020-Jan-15 01:31N 43°27' E 009°23'  

Dump ship's entire track history